createdAt,value
2022-08-28T00:02:06.838Z,98.68
2022-08-28T00:04:34.564Z,98.48
2022-08-28T00:07:02.170Z,98.52
2022-08-28T00:09:31.094Z,98.28
2022-08-28T00:11:58.684Z,98.36
2022-08-28T00:14:26.691Z,98.36
2022-08-28T00:16:54.794Z,98.39
2022-08-28T00:19:24.025Z,98.47
2022-08-28T00:21:51.835Z,98.73
2022-08-28T00:24:19.445Z,98.60
2022-08-28T00:27:05.882Z,98.77
2022-08-28T00:29:33.413Z,99.08
2022-08-28T00:32:01.306Z,99.08
2022-08-28T00:34:33.105Z,99.41
2022-08-28T00:37:01.561Z,99.56
2022-08-28T00:39:29.135Z,99.63
2022-08-28T00:41:58.831Z,99.81
2022-08-28T00:44:27.600Z,99.89
2022-08-28T00:46:55.791Z,100.00
2022-08-28T00:49:24.519Z,100.00
2022-08-28T00:52:12.725Z,100.00
2022-08-28T00:54:41.611Z,100.00
2022-08-28T00:57:21.518Z,99.98
2022-08-28T00:59:54.598Z,100.00
2022-08-28T01:02:22.359Z,100.00
2022-08-28T01:04:50.698Z,100.00
2022-08-28T01:07:18.420Z,100.00
2022-08-28T01:09:48.363Z,100.00
2022-08-28T01:12:18.929Z,100.00
2022-08-28T01:14:50.012Z,100.00
2022-08-28T01:17:19.209Z,100.00
2022-08-28T01:19:48.166Z,100.00
2022-08-28T01:22:21.210Z,100.00
2022-08-28T01:24:50.774Z,100.00
2022-08-28T01:27:18.724Z,100.00
2022-08-28T01:29:47.975Z,100.00
2022-08-28T01:32:26.748Z,100.00
2022-08-28T01:34:54.290Z,100.00
2022-08-28T01:37:21.930Z,100.00
2022-08-28T01:39:51.233Z,100.00
2022-08-28T01:42:19.024Z,100.00
2022-08-28T01:44:47.488Z,100.00
2022-08-28T01:47:15.063Z,100.00
2022-08-28T01:49:42.667Z,100.00
2022-08-28T01:52:10.458Z,100.00
2022-08-28T01:54:39.813Z,100.00
2022-08-28T01:57:09.701Z,100.00
2022-08-28T01:59:37.243Z,100.00
2022-08-28T02:02:05.703Z,100.00
2022-08-28T02:04:33.785Z,100.00
2022-08-28T02:07:01.328Z,100.00
2022-08-28T02:09:28.990Z,100.00
2022-08-28T02:11:57.321Z,100.00
2022-08-28T02:14:26.314Z,100.00
2022-08-28T02:16:53.959Z,100.00
2022-08-28T02:19:22.360Z,100.00
2022-08-28T02:21:50.104Z,100.00
2022-08-28T02:24:18.104Z,100.00
2022-08-28T02:26:45.755Z,100.00
2022-08-28T02:29:13.597Z,100.00
2022-08-28T02:31:42.500Z,100.00
2022-08-28T02:34:11.436Z,100.00
2022-08-28T02:36:40.887Z,100.00
2022-08-28T02:39:08.407Z,100.00
2022-08-28T02:41:35.936Z,100.00
2022-08-28T02:44:03.676Z,100.00
2022-08-28T02:46:31.585Z,100.00
2022-08-28T02:49:00.633Z,100.00
2022-08-28T02:51:31.200Z,100.00
2022-08-28T02:53:58.719Z,100.00
2022-08-28T02:56:26.288Z,100.00
2022-08-28T02:58:53.937Z,100.00
2022-08-28T03:01:24.288Z,100.00
2022-08-28T03:03:52.006Z,100.00
2022-08-28T03:06:20.936Z,100.00
2022-08-28T03:08:49.061Z,100.00
2022-08-28T03:11:16.656Z,100.00
2022-08-28T03:13:44.210Z,100.00
2022-08-28T03:16:11.797Z,100.00
2022-08-28T03:18:39.537Z,100.00
2022-08-28T03:21:07.272Z,100.00
2022-08-28T03:23:36.474Z,100.00
2022-08-28T03:26:05.942Z,100.00
2022-08-28T03:28:34.578Z,100.00
2022-08-28T03:31:02.480Z,100.00
2022-08-28T03:33:30.111Z,100.00
2022-08-28T03:35:57.845Z,100.00
2022-08-28T03:38:25.887Z,100.00
2022-08-28T03:40:55.432Z,100.00
2022-08-28T03:43:24.914Z,100.00
2022-08-28T03:45:58.075Z,100.00
2022-08-28T03:48:26.782Z,100.00
2022-08-28T03:50:54.714Z,100.00
2022-08-28T03:53:23.484Z,100.00
2022-08-28T03:55:51.077Z,100.00
2022-08-28T03:58:20.226Z,100.00
2022-08-28T04:00:47.820Z,100.00
2022-08-28T04:03:15.369Z,100.00
2022-08-28T04:05:43.587Z,100.00
2022-08-28T04:08:12.688Z,100.00
2022-08-28T04:10:40.688Z,100.00
2022-08-28T04:13:08.233Z,100.00
2022-08-28T04:15:37.137Z,100.00
2022-08-28T04:18:04.717Z,100.00
2022-08-28T04:20:32.248Z,100.00
2022-08-28T04:23:00.453Z,100.00
2022-08-28T04:25:28.122Z,100.00
2022-08-28T04:27:55.646Z,100.00
2022-08-28T04:30:23.235Z,100.00
2022-08-28T04:32:52.138Z,100.00
2022-08-28T04:35:19.724Z,100.00
2022-08-28T04:37:47.281Z,100.00
2022-08-28T04:40:15.987Z,100.00
2022-08-28T04:42:45.022Z,100.00
2022-08-28T04:45:13.518Z,100.00
2022-08-28T04:47:41.206Z,100.00
2022-08-28T04:50:11.828Z,100.00
2022-08-28T04:52:39.372Z,100.00
2022-08-28T04:55:07.536Z,100.00
2022-08-28T04:57:36.513Z,100.00
2022-08-28T05:00:05.376Z,100.00
2022-08-28T05:02:32.974Z,100.00
2022-08-28T05:05:00.573Z,100.00
2022-08-28T05:07:29.712Z,100.00
2022-08-28T05:09:57.248Z,100.00
2022-08-28T05:12:25.497Z,100.00
2022-08-28T05:14:53.034Z,100.00
2022-08-28T05:17:20.563Z,100.00
2022-08-28T05:19:48.474Z,100.00
2022-08-28T05:22:16.382Z,100.00
2022-08-28T05:24:45.253Z,100.00
2022-08-28T05:27:12.856Z,100.00
2022-08-28T05:29:40.411Z,100.00
2022-08-28T05:32:08.070Z,100.00
2022-08-28T05:34:35.602Z,100.00
2022-08-28T05:37:03.203Z,100.00
2022-08-28T05:39:30.709Z,100.00
2022-08-28T05:41:59.588Z,100.00
2022-08-28T05:44:27.243Z,100.00
2022-08-28T05:46:55.731Z,100.00
2022-08-28T05:49:23.580Z,100.00
2022-08-28T05:51:52.361Z,100.00
2022-08-28T05:54:19.969Z,100.00
2022-08-28T05:56:47.828Z,100.00
2022-08-28T05:59:16.900Z,100.00
2022-08-28T06:01:45.374Z,100.00
2022-08-28T06:04:14.498Z,100.00
2022-08-28T06:06:42.903Z,100.00
2022-08-28T06:09:11.417Z,100.00
2022-08-28T06:11:44.864Z,100.00
2022-08-28T06:14:15.136Z,100.00
2022-08-28T06:16:46.173Z,100.00
2022-08-28T06:19:14.302Z,100.00
2022-08-28T06:21:42.383Z,100.00
2022-08-28T06:24:10.895Z,100.00
2022-08-28T06:26:38.486Z,100.00
2022-08-28T06:29:07.688Z,100.00
2022-08-28T06:31:35.609Z,100.00
2022-08-28T06:34:04.782Z,100.00
2022-08-28T06:36:34.035Z,100.00
2022-08-28T06:39:02.435Z,100.00
2022-08-28T06:41:32.032Z,100.00
2022-08-28T06:43:59.802Z,100.00
2022-08-28T06:46:30.292Z,100.00
2022-08-28T06:48:57.803Z,100.00
2022-08-28T06:51:26.723Z,100.00
2022-08-28T06:53:54.211Z,100.00
2022-08-28T06:56:26.896Z,100.00
2022-08-28T06:58:55.678Z,100.00
2022-08-28T07:01:24.440Z,100.00
2022-08-28T07:03:53.067Z,100.00
2022-08-28T07:06:21.499Z,97.50
2022-08-28T07:08:50.938Z,93.25
2022-08-28T07:11:20.913Z,88.40
2022-08-28T07:13:49.028Z,83.12
2022-08-28T07:16:18.033Z,78.61
2022-08-28T07:18:46.207Z,74.65
2022-08-28T07:21:14.626Z,69.41
2022-08-28T07:23:44.041Z,66.67
2022-08-28T07:26:14.363Z,63.99
2022-08-28T07:28:42.096Z,61.38
2022-08-28T07:31:10.993Z,57.24
2022-08-28T07:33:39.529Z,57.14
2022-08-28T07:36:07.965Z,57.13
2022-08-28T07:38:43.658Z,58.31
2022-08-28T07:41:16.622Z,57.96
2022-08-28T07:43:58.106Z,56.69
2022-08-28T07:46:25.642Z,53.89
2022-08-28T07:48:53.824Z,53.83
2022-08-28T07:51:21.436Z,55.91
2022-08-28T07:53:48.953Z,56.16
2022-08-28T07:56:17.953Z,54.17
2022-08-28T07:58:45.525Z,52.70
2022-08-28T08:01:13.134Z,51.56
2022-08-28T08:03:40.804Z,49.61
2022-08-28T08:06:08.584Z,49.05
2022-08-28T08:08:36.552Z,47.68
2022-08-28T08:11:05.549Z,48.15
2022-08-28T08:13:35.155Z,47.99
2022-08-28T08:16:03.951Z,44.75
2022-08-28T08:18:31.924Z,46.09
2022-08-28T08:20:59.440Z,45.47
2022-08-28T08:23:27.023Z,44.32
2022-08-28T08:25:55.741Z,45.04
2022-08-28T08:28:23.312Z,43.75
2022-08-28T08:30:52.301Z,43.82
2022-08-28T08:33:20.236Z,43.95
2022-08-28T08:35:47.765Z,43.56
2022-08-28T08:38:15.383Z,43.66
2022-08-28T08:40:43.015Z,44.79
2022-08-28T08:43:10.961Z,42.59
2022-08-28T08:45:39.255Z,40.07
2022-08-28T08:48:22.741Z,39.10
2022-08-28T08:50:50.396Z,40.05
2022-08-28T08:53:24.264Z,40.85
2022-08-28T08:55:53.556Z,40.87
2022-08-28T08:58:25.431Z,41.49
2022-08-28T09:00:59.654Z,42.44
2022-08-28T09:03:33.408Z,42.80
2022-08-28T09:06:03.561Z,43.11
2022-08-28T09:08:32.885Z,45.09
2022-08-28T09:11:03.199Z,46.50
2022-08-28T09:13:35.037Z,46.09
2022-08-28T09:16:06.449Z,44.29
2022-08-28T09:18:36.282Z,44.91
2022-08-28T09:21:06.682Z,44.69
2022-08-28T09:23:34.438Z,44.12
2022-08-28T09:26:03.457Z,44.00
2022-08-28T09:28:31.800Z,45.60
2022-08-28T09:31:02.154Z,45.95
2022-08-28T09:33:31.560Z,45.31
2022-08-28T09:36:21.077Z,46.10
2022-08-28T09:39:03.216Z,46.23
2022-08-28T09:41:48.304Z,45.71
2022-08-28T09:44:15.876Z,45.08
2022-08-28T09:46:47.912Z,43.84
2022-08-28T09:49:15.821Z,44.01
2022-08-28T09:51:43.523Z,42.91
2022-08-28T09:54:17.016Z,42.51
2022-08-28T09:56:45.700Z,42.46
2022-08-28T09:59:14.384Z,42.61
2022-08-28T10:01:52.547Z,44.11
2022-08-28T10:04:28.960Z,42.34
2022-08-28T10:06:58.156Z,43.62
2022-08-28T10:09:30.236Z,45.84
2022-08-28T10:12:01.077Z,46.19
2022-08-28T10:14:38.306Z,46.37
2022-08-28T10:17:14.145Z,45.46
2022-08-28T10:19:46.454Z,44.49
2022-08-28T10:22:22.369Z,45.49
2022-08-28T10:24:57.298Z,44.24
2022-08-28T10:27:32.694Z,43.97
2022-08-28T10:30:08.906Z,43.11
2022-08-28T10:32:48.940Z,42.67
2022-08-28T10:35:19.119Z,42.85
2022-08-28T10:37:53.133Z,41.94
2022-08-28T10:40:25.545Z,39.79
2022-08-28T10:42:57.496Z,40.58
2022-08-28T10:45:26.326Z,39.05
2022-08-28T10:47:58.086Z,37.87
2022-08-28T10:50:27.863Z,38.15
2022-08-28T10:52:58.233Z,39.31
2022-08-28T10:55:32.336Z,39.83
2022-08-28T10:58:02.442Z,41.68
2022-08-28T11:00:30.778Z,41.31
2022-08-28T11:03:00.440Z,39.76
2022-08-28T11:05:30.438Z,40.19
2022-08-28T11:07:59.904Z,39.87
2022-08-28T11:10:42.658Z,40.83
2022-08-28T11:13:12.565Z,41.26
2022-08-28T11:15:51.144Z,41.61
2022-08-28T11:18:37.887Z,42.04
2022-08-28T11:21:10.952Z,43.08
2022-08-28T11:23:43.442Z,43.83
2022-08-28T11:26:13.889Z,43.59
2022-08-28T11:28:45.505Z,43.85
2022-08-28T11:31:33.848Z,43.46
2022-08-28T11:34:02.684Z,43.40
2022-08-28T11:36:48.693Z,44.12
2022-08-28T11:39:21.045Z,43.13
2022-08-28T11:42:07.364Z,43.54
2022-08-28T11:44:43.535Z,43.74
2022-08-28T11:47:29.848Z,43.59
2022-08-28T11:50:04.093Z,44.19
2022-08-28T11:52:37.732Z,44.79
2022-08-28T11:55:11.619Z,45.57
2022-08-28T11:57:49.737Z,44.95
2022-08-28T12:00:24.292Z,44.31
2022-08-28T12:03:00.616Z,44.93
2022-08-28T12:05:40.932Z,45.27
2022-08-28T12:08:12.056Z,46.46
2022-08-28T12:10:57.847Z,47.12
2022-08-28T12:13:44.517Z,46.22
2022-08-28T12:16:15.782Z,45.86
2022-08-28T12:19:01.977Z,44.95
2022-08-28T12:21:30.063Z,45.42
2022-08-28T12:24:02.117Z,45.66
2022-08-28T12:26:35.996Z,45.91
2022-08-28T12:29:04.373Z,46.75
2022-08-28T12:32:03.957Z,47.66
2022-08-28T12:34:35.932Z,47.86
2022-08-28T12:37:05.394Z,46.08
2022-08-28T12:39:34.408Z,45.48
2022-08-28T12:42:02.853Z,46.18
2022-08-28T12:44:31.975Z,46.24
2022-08-28T12:47:01.230Z,46.48
2022-08-28T12:49:32.472Z,46.94
2022-08-28T12:52:14.529Z,45.99
2022-08-28T12:54:45.164Z,45.86
2022-08-28T12:57:14.101Z,45.88
2022-08-28T12:59:42.538Z,45.78
2022-08-28T13:02:14.209Z,46.81
2022-08-28T13:04:46.697Z,47.32
2022-08-28T13:07:16.024Z,47.61
2022-08-28T13:09:47.139Z,47.50
2022-08-28T13:12:19.586Z,46.79
2022-08-28T13:14:48.450Z,47.18
2022-08-28T13:17:37.309Z,47.75
2022-08-28T13:20:06.648Z,47.24
2022-08-28T13:22:39.680Z,46.94
2022-08-28T13:25:08.078Z,47.59
2022-08-28T13:27:35.788Z,47.36
2022-08-28T13:30:09.134Z,48.02
2022-08-28T13:32:39.294Z,48.26
2022-08-28T13:35:16.629Z,48.38
2022-08-28T13:37:46.393Z,48.86
2022-08-28T13:40:38.110Z,47.86
2022-08-28T13:43:03.792Z,47.26
2022-08-28T13:45:42.681Z,46.88
2022-08-28T13:48:12.160Z,46.98
2022-08-28T13:50:41.619Z,47.27
2022-08-28T13:53:09.435Z,45.99
2022-08-28T13:55:37.779Z,46.56
2022-08-28T13:58:05.366Z,47.35
2022-08-28T14:00:35.953Z,46.90
2022-08-28T14:03:21.381Z,46.83
2022-08-28T14:05:50.308Z,46.07
2022-08-28T14:08:17.854Z,46.71
2022-08-28T14:10:46.152Z,47.36
2022-08-28T14:13:13.990Z,47.37
2022-08-28T14:15:41.689Z,47.39
2022-08-28T14:18:09.262Z,46.28
2022-08-28T14:20:38.705Z,47.37
2022-08-28T14:23:07.588Z,48.13
2022-08-28T14:25:41.592Z,48.29
2022-08-28T14:28:09.165Z,47.84
2022-08-28T14:30:36.758Z,47.43
2022-08-28T14:33:04.303Z,47.59
2022-08-28T14:35:32.061Z,48.35
2022-08-28T14:37:59.728Z,48.30
2022-08-28T14:40:28.694Z,49.10
2022-08-28T14:42:56.318Z,49.09
2022-08-28T14:45:23.876Z,49.63
2022-08-28T14:47:51.456Z,49.85
2022-08-28T14:50:19.083Z,50.07
2022-08-28T14:52:46.806Z,48.86
2022-08-28T14:55:18.717Z,49.39
2022-08-28T14:57:48.105Z,49.67
2022-08-28T15:00:18.970Z,49.82
2022-08-28T15:02:46.567Z,50.19
2022-08-28T15:05:15.479Z,50.93
2022-08-28T15:07:43.021Z,51.21
2022-08-28T15:10:11.537Z,51.95
2022-08-28T15:12:39.269Z,51.89
2022-08-28T15:15:12.148Z,52.56
2022-08-28T15:17:39.753Z,53.19
2022-08-28T15:20:07.783Z,54.10
2022-08-28T15:22:35.412Z,54.75
2022-08-28T15:25:03.289Z,53.83
2022-08-28T15:27:30.831Z,53.68
2022-08-28T15:29:58.438Z,53.92
2022-08-28T15:32:27.336Z,53.91
2022-08-28T15:34:54.870Z,54.12
2022-08-28T15:37:22.483Z,54.20
2022-08-28T15:40:07.771Z,54.58
2022-08-28T15:42:35.346Z,54.60
2022-08-28T15:45:02.886Z,54.05
2022-08-28T15:47:31.940Z,53.37
2022-08-28T15:49:59.468Z,53.92
2022-08-28T15:52:27.705Z,54.21
2022-08-28T15:54:55.337Z,53.83
2022-08-28T15:57:23.471Z,53.50
2022-08-28T15:59:51.326Z,54.16
2022-08-28T16:02:20.013Z,54.60
2022-08-28T16:04:49.249Z,55.10
2022-08-28T16:07:17.260Z,54.99
2022-08-28T16:09:44.791Z,55.35
2022-08-28T16:12:12.356Z,55.95
2022-08-28T16:14:39.963Z,56.51
2022-08-28T16:17:11.063Z,56.94
2022-08-28T16:19:39.005Z,57.05
2022-08-28T16:22:08.043Z,57.83
2022-08-28T16:24:35.825Z,59.01
2022-08-28T16:27:03.451Z,59.21
2022-08-28T16:29:31.037Z,59.94
2022-08-28T16:31:59.050Z,59.85
2022-08-28T16:34:31.211Z,60.34
2022-08-28T16:36:59.144Z,60.61
2022-08-28T16:39:28.401Z,61.22
2022-08-28T16:41:55.977Z,60.89
2022-08-28T16:44:25.388Z,60.95
2022-08-28T16:46:53.127Z,61.15
2022-08-28T16:49:20.910Z,61.08
2022-08-28T16:51:48.496Z,61.20
2022-08-28T16:54:16.283Z,62.02
2022-08-28T16:56:45.677Z,62.89
2022-08-28T16:59:16.368Z,63.34
2022-08-28T17:01:44.155Z,63.91
2022-08-28T17:04:12.441Z,64.39
2022-08-28T17:06:40.030Z,65.53
2022-08-28T17:09:07.703Z,66.03
2022-08-28T17:11:35.602Z,66.36
2022-08-28T17:14:04.526Z,66.42
2022-08-28T17:16:32.235Z,66.94
2022-08-28T17:19:00.110Z,67.12
2022-08-28T17:21:45.039Z,66.81
2022-08-28T17:24:13.310Z,67.83
2022-08-28T17:26:41.888Z,68.66
2022-08-28T17:29:11.275Z,69.42
2022-08-28T17:31:39.318Z,70.31
2022-08-28T17:34:07.353Z,71.59
2022-08-28T17:36:36.564Z,72.30
2022-08-28T17:39:05.239Z,73.27
2022-08-28T17:41:33.752Z,73.67
2022-08-28T17:44:01.349Z,74.47
2022-08-28T17:46:35.287Z,75.17
2022-08-28T17:49:05.239Z,76.01
2022-08-28T17:51:42.823Z,77.06
2022-08-28T17:54:10.846Z,78.31
2022-08-28T17:56:38.442Z,78.61
2022-08-28T17:59:05.976Z,79.51
2022-08-28T18:01:34.993Z,80.22
2022-08-28T18:04:02.797Z,80.50
2022-08-28T18:06:32.136Z,81.42
2022-08-28T18:09:00.422Z,82.01
2022-08-28T18:11:28.517Z,82.45
2022-08-28T18:13:56.189Z,82.50
2022-08-28T18:16:27.639Z,82.50
2022-08-28T18:18:59.403Z,82.33
2022-08-28T18:21:27.008Z,81.82
2022-08-28T18:23:54.666Z,82.20
2022-08-28T18:26:22.200Z,82.27
2022-08-28T18:28:49.736Z,81.61
2022-08-28T18:31:17.650Z,80.96
2022-08-28T18:33:45.281Z,80.51
2022-08-28T18:36:15.167Z,80.00
2022-08-28T18:38:43.041Z,79.40
2022-08-28T18:41:11.995Z,79.44
2022-08-28T18:43:39.628Z,79.01
2022-08-28T18:46:08.766Z,78.98
2022-08-28T18:48:37.077Z,78.75
2022-08-28T18:51:06.175Z,78.92
2022-08-28T18:53:35.582Z,78.70
2022-08-28T18:56:03.897Z,78.90
2022-08-28T18:58:32.151Z,79.08
2022-08-28T19:01:01.367Z,79.09
2022-08-28T19:03:28.988Z,78.91
2022-08-28T19:05:57.274Z,79.32
2022-08-28T19:08:25.269Z,79.86
2022-08-28T19:10:54.875Z,79.81
2022-08-28T19:13:22.461Z,80.33
2022-08-28T19:15:51.618Z,80.54
2022-08-28T19:18:19.766Z,80.85
2022-08-28T19:20:47.308Z,81.11
2022-08-28T19:23:17.623Z,81.46
2022-08-28T19:25:46.027Z,81.46
2022-08-28T19:28:15.071Z,81.63
2022-08-28T19:30:42.702Z,81.98
2022-08-28T19:33:12.518Z,82.08
2022-08-28T19:35:40.169Z,82.26
2022-08-28T19:38:07.816Z,82.31
2022-08-28T19:40:35.624Z,82.25
2022-08-28T19:43:03.280Z,82.38
2022-08-28T19:45:35.256Z,82.35
2022-08-28T19:48:03.205Z,82.75
2022-08-28T19:50:30.806Z,82.89
2022-08-28T19:52:58.461Z,82.96
2022-08-28T19:55:27.111Z,83.19
2022-08-28T19:57:54.698Z,83.37
2022-08-28T20:00:24.141Z,83.67
2022-08-28T20:02:53.137Z,83.78
2022-08-28T20:05:21.255Z,83.89
2022-08-28T20:07:48.886Z,84.01
2022-08-28T20:10:17.148Z,84.20
2022-08-28T20:12:48.663Z,84.45
2022-08-28T20:15:17.313Z,84.71
2022-08-28T20:17:49.608Z,84.80
2022-08-28T20:20:20.030Z,84.99
2022-08-28T20:22:47.603Z,84.95
2022-08-28T20:25:15.593Z,85.04
2022-08-28T20:27:43.171Z,85.25
2022-08-28T20:30:11.519Z,85.34
2022-08-28T20:32:41.125Z,85.33
2022-08-28T20:35:10.833Z,85.29
2022-08-28T20:37:44.795Z,85.74
2022-08-28T20:40:13.774Z,86.11
2022-08-28T20:42:41.372Z,86.42
2022-08-28T20:45:09.137Z,86.47
2022-08-28T20:47:36.754Z,86.73
2022-08-28T20:50:04.577Z,86.91
2022-08-28T20:52:32.096Z,86.91
2022-08-28T20:55:01.038Z,86.77
2022-08-28T20:57:28.617Z,86.74
2022-08-28T20:59:56.208Z,86.72
2022-08-28T21:02:24.724Z,86.67
2022-08-28T21:04:52.515Z,86.46
2022-08-28T21:07:21.012Z,86.34
2022-08-28T21:10:06.137Z,86.14
2022-08-28T21:12:36.629Z,85.97
2022-08-28T21:15:05.031Z,85.72
2022-08-28T21:17:32.581Z,85.45
2022-08-28T21:20:01.189Z,85.18
2022-08-28T21:22:31.430Z,84.71
2022-08-28T21:24:59.134Z,84.63
2022-08-28T21:27:26.773Z,84.55
2022-08-28T21:29:58.007Z,84.33
2022-08-28T21:32:25.641Z,83.98
2022-08-28T21:34:54.516Z,83.80
2022-08-28T21:37:22.180Z,83.45
2022-08-28T21:39:49.842Z,82.43
2022-08-28T21:42:17.487Z,81.93
2022-08-28T21:44:51.559Z,81.45
2022-08-28T21:47:21.321Z,80.96
2022-08-28T21:49:49.006Z,80.09
2022-08-28T21:52:16.575Z,79.57
2022-08-28T21:54:44.120Z,78.64
2022-08-28T21:57:11.660Z,78.10
2022-08-28T21:59:39.190Z,77.38
2022-08-28T22:02:06.999Z,76.91
2022-08-28T22:04:36.609Z,76.23
2022-08-28T22:07:04.155Z,75.05
2022-08-28T22:09:32.020Z,74.41
2022-08-28T22:11:59.551Z,73.55
2022-08-28T22:14:28.494Z,73.20
2022-08-28T22:16:56.124Z,73.32
2022-08-28T22:19:23.727Z,73.04
2022-08-28T22:22:10.023Z,73.04
2022-08-28T22:24:37.976Z,73.27
2022-08-28T22:27:05.814Z,73.18
2022-08-28T22:29:36.499Z,73.45
2022-08-28T22:32:04.254Z,74.03
2022-08-28T22:34:32.048Z,74.55
2022-08-28T22:37:00.946Z,74.57
2022-08-28T22:39:28.458Z,74.74
2022-08-28T22:41:55.974Z,74.93
2022-08-28T22:44:23.527Z,75.07
2022-08-28T22:46:51.026Z,75.09
2022-08-28T22:49:18.585Z,75.07
2022-08-28T22:51:46.132Z,75.03
2022-08-28T22:54:15.050Z,75.04
2022-08-28T22:56:42.686Z,75.10
2022-08-28T22:59:10.499Z,74.96
2022-08-28T23:01:38.085Z,75.25
2022-08-28T23:04:05.992Z,75.32
2022-08-28T23:06:33.602Z,75.53
2022-08-28T23:09:01.223Z,75.55
2022-08-28T23:11:30.201Z,75.55
2022-08-28T23:13:57.782Z,75.81
2022-08-28T23:16:25.403Z,75.88
2022-08-28T23:19:08.593Z,75.94
2022-08-28T23:21:40.829Z,76.12
2022-08-28T23:24:11.838Z,76.68
2022-08-28T23:26:40.726Z,77.29
2022-08-28T23:29:08.507Z,77.88
2022-08-28T23:31:36.140Z,78.19
2022-08-28T23:34:03.751Z,78.76
2022-08-28T23:36:35.355Z,79.29
2022-08-28T23:39:03.379Z,79.93
2022-08-28T23:41:31.535Z,80.63
2022-08-28T23:44:01.685Z,80.80
2022-08-28T23:46:31.771Z,81.42
2022-08-28T23:48:59.319Z,82.85
2022-08-28T23:51:27.145Z,83.79
2022-08-28T23:53:55.787Z,83.95
2022-08-28T23:56:28.115Z,83.63
2022-08-28T23:58:55.944Z,83.26
